Time,TemperatureF,DewpointF,PressureIn,WindDirection,WindDirectionDegrees,WindSpeedMPH,WindSpeedGustMPH,Humidity,HourlyPrecipIn,Conditions,Clouds,dailyrainin,SoftwareType,DateUTC
2013-02-18 00:06:00,20.0,8.0,30.24,WSW,243,2.0,5.0,60,0.00,,,0.00,weatherlink.com 1.10,2013-02-18 07:06:00,
2013-02-18 00:21:00,20.3,7.0,30.25,WSW,241,1.0,8.0,56,0.00,,,0.00,weatherlink.com 1.10,2013-02-18 07:21:00,
2013-02-18 00:36:00,19.7,6.0,30.25,SW,225,1.0,5.0,56,0.00,,,0.00,weatherlink.com 1.10,2013-02-18 07:36:00,
2013-02-18 00:51:00,19.4,6.0,30.25,West,266,1.0,6.0,56,0.00,,,0.00,weatherlink.com 1.10,2013-02-18 07:51:00,
2013-02-18 01:06:00,19.7,5.0,30.25,SSW,212,4.0,6.0,54,0.00,,,0.00,weatherlink.com 1.10,2013-02-18 08:06:00,
2013-02-18 01:21:00,20.0,5.0,30.26,SW,221,1.0,8.0,52,0.00,,,0.00,weatherlink.com 1.10,2013-02-18 08:21:00,
2013-02-18 01:36:00,21.1,4.0,30.26,SW,216,9.0,13.0,48,0.00,,,0.00,weatherlink.com 1.10,2013-02-18 08:36:00,
2013-02-18 01:52:00,21.0,3.0,30.26,SW,218,9.0,14.0,46,0.00,,,0.00,weatherlink.com 1.10,2013-02-18 08:52:00,
2013-02-18 02:07:00,20.8,3.0,30.27,SSW,209,7.0,12.0,46,0.00,,,0.00,weatherlink.com 1.10,2013-02-18 09:07:00,
2013-02-18 02:21:00,21.3,2.0,30.27,SSW,210,7.0,12.0,43,0.00,,,0.00,weatherlink.com 1.10,2013-02-18 09:21:00,
2013-02-18 02:36:00,20.8,2.0,30.27,SW,216,9.0,20.0,44,0.00,,,0.00,weatherlink.com 1.10,2013-02-18 09:36:00,
2013-02-18 02:51:00,20.5,2.0,30.27,SW,226,8.0,17.0,45,0.00,,,0.00,weatherlink.com 1.10,2013-02-18 09:51:00,
2013-02-18 03:06:00,20.3,2.0,30.27,SW,225,14.0,17.0,44,0.00,,,0.00,weatherlink.com 1.10,2013-02-18 10:06:00,
2013-02-18 03:21:00,20.2,0.0,30.27,SW,216,13.0,17.0,42,0.00,,,0.00,weatherlink.com 1.10,2013-02-18 10:21:00,
2013-02-18 03:36:00,20.2,1.0,30.27,SSW,213,11.0,18.0,43,0.00,,,0.00,weatherlink.com 1.10,2013-02-18 10:36:00,
2013-02-18 03:51:00,20.5,1.0,30.27,SW,221,11.0,16.0,42,0.00,,,0.00,weatherlink.com 1.10,2013-02-18 10:51:00,
2013-02-18 04:06:00,19.9,1.0,30.27,SW,216,8.0,14.0,44,0.00,,,0.00,weatherlink.com 1.10,2013-02-18 11:06:00,
2013-02-18 04:21:00,20.2,1.0,30.27,SSW,212,6.0,10.0,43,0.00,,,0.00,weatherlink.com 1.10,2013-02-18 11:21:00,
2013-02-18 04:36:00,20.5,1.0,30.28,WSW,237,4.0,9.0,42,0.00,,,0.00,weatherlink.com 1.10,2013-02-18 11:36:00,
2013-02-18 04:54:00,15.9,1.0,30.29,ENE,57,1.0,3.0,51,0.00,,,0.00,weatherlink.com 1.10,2013-02-18 11:54:00,
2013-02-18 05:06:00,15.7,1.0,30.30,NW,310,2.0,5.0,53,0.00,,,0.00,weatherlink.com 1.10,2013-02-18 12:06:00,
2013-02-18 05:21:00,17.3,1.0,30.30,SSW,201,2.0,7.0,48,0.00,,,0.00,weatherlink.com 1.10,2013-02-18 12:21:00,
2013-02-18 05:36:00,19.9,0.0,30.29,SW,224,16.0,18.0,41,0.00,,,0.00,weatherlink.com 1.10,2013-02-18 12:36:00,
2013-02-18 05:51:00,17.5,0.0,30.30,WSW,243,5.0,7.0,46,0.00,,,0.00,weatherlink.com 1.10,2013-02-18 12:51:00,
2013-02-18 06:07:00,15.9,1.0,30.31,NW,304,3.0,6.0,51,0.00,,,0.00,weatherlink.com 1.10,2013-02-18 13:07:00,
2013-02-18 06:21:00,16.4,0.0,30.32,WSW,245,1.0,4.0,49,0.00,,,0.00,weatherlink.com 1.10,2013-02-18 13:21:00,
2013-02-18 06:37:00,16.7,0.0,30.32,WSW,244,1.0,3.0,47,0.00,,,0.00,weatherlink.com 1.10,2013-02-18 13:37:00,
2013-02-18 06:51:00,16.1,-1.0,30.32,WSW,245,1.0,4.0,48,0.00,,,0.00,weatherlink.com 1.10,2013-02-18 13:51:00,
2013-02-18 07:07:00,17.5,-2.0,30.32,WSW,245,3.0,5.0,42,0.00,,,0.00,weatherlink.com 1.10,2013-02-18 14:07:00,
2013-02-18 07:22:00,17.7,-1.0,30.32,SSW,201,1.0,4.0,43,0.00,,,0.00,weatherlink.com 1.10,2013-02-18 14:22:00,
2013-02-18 07:37:00,17.0,-2.0,30.34,NW,320,0.0,4.0,43,0.00,,,0.00,weatherlink.com 1.10,2013-02-18 14:37:00,
2013-02-18 07:52:00,16.5,-1.0,30.34,WSW,243,1.0,2.0,47,0.00,,,0.00,weatherlink.com 1.10,2013-02-18 14:52:00,
2013-02-18 08:07:00,16.2,-1.0,30.35,North,354,1.0,5.0,48,0.00,,,0.00,weatherlink.com 1.10,2013-02-18 15:07:00,
2013-02-18 08:22:00,17.5,0.0,30.35,WNW,293,1.0,4.0,46,0.00,,,0.00,weatherlink.com 1.10,2013-02-18 15:22:00,
2013-02-18 08:37:00,21.0,1.0,30.36,WNW,293,0.0,2.0,41,0.00,,,0.00,weatherlink.com 1.10,2013-02-18 15:37:00,
2013-02-18 08:52:00,23.6,1.0,30.36,WNW,293,0.0,2.0,38,0.00,,,0.00,weatherlink.com 1.10,2013-02-18 15:52:00,
2013-02-18 09:07:00,23.9,1.0,30.36,East,98,1.0,3.0,37,0.00,,,0.00,weatherlink.com 1.10,2013-02-18 16:07:00,
2013-02-18 09:23:00,25.6,2.0,30.36,East,98,0.0,2.0,36,0.00,,,0.00,weatherlink.com 1.10,2013-02-18 16:23:00,
2013-02-18 09:37:00,23.2,2.0,30.37,East,87,3.0,9.0,40,0.00,,,0.00,weatherlink.com 1.10,2013-02-18 16:37:00,
2013-02-18 09:52:00,25.1,3.0,30.37,East,98,0.0,3.0,39,0.00,,,0.00,weatherlink.com 1.10,2013-02-18 16:52:00,
2013-02-18 10:08:00,27.3,3.0,30.38,East,98,2.0,3.0,35,0.00,,,0.00,weatherlink.com 1.10,2013-02-18 17:08:00,
2013-02-18 10:22:00,25.4,4.0,30.39,SE,141,4.0,7.0,40,0.00,,,0.00,weatherlink.com 1.10,2013-02-18 17:22:00,
2013-02-18 10:38:00,27.5,1.0,30.39,SSW,197,2.0,7.0,32,0.00,,,0.00,weatherlink.com 1.10,2013-02-18 17:38:00,
2013-02-18 10:53:00,29.3,1.0,30.39,SSW,202,0.0,5.0,30,0.00,,,0.00,weatherlink.com 1.10,2013-02-18 17:53:00,
2013-02-18 11:08:00,29.8,2.0,30.38,SW,222,0.0,4.0,30,0.00,,,0.00,weatherlink.com 1.10,2013-02-18 18:08:00,
2013-02-18 11:23:00,30.0,3.0,30.39,NNW,334,3.0,6.0,32,0.00,,,0.00,weatherlink.com 1.10,2013-02-18 18:23:00,
2013-02-18 11:38:00,30.1,3.0,30.39,SW,220,1.0,5.0,32,0.00,,,0.00,weatherlink.com 1.10,2013-02-18 18:38:00,
2013-02-18 11:53:00,30.7,5.0,30.39,East,79,3.0,6.0,34,0.00,,,0.00,weatherlink.com 1.10,2013-02-18 18:53:00,
2013-02-18 12:08:00,28.8,8.0,30.39,ESE,106,7.0,9.0,42,0.00,,,0.00,weatherlink.com 1.10,2013-02-18 19:08:00,
2013-02-18 12:23:00,27.9,7.0,30.39,ESE,108,7.0,10.0,42,0.00,,,0.00,weatherlink.com 1.10,2013-02-18 19:23:00,
2013-02-18 12:54:00,30.3,8.0,30.38,East,96,3.0,8.0,39,0.00,,,0.00,weatherlink.com 1.10,2013-02-18 19:54:00,
2013-02-18 13:08:00,29.5,7.0,30.38,SE,129,8.0,12.0,38,0.00,,,0.00,weatherlink.com 1.10,2013-02-18 20:08:00,
2013-02-18 13:23:00,29.4,6.0,30.37,ESE,103,5.0,15.0,37,0.00,,,0.00,weatherlink.com 1.10,2013-02-18 20:23:00,
2013-02-18 13:39:00,29.1,7.0,30.37,ESE,108,9.0,12.0,39,0.00,,,0.00,weatherlink.com 1.10,2013-02-18 20:39:00,
2013-02-18 13:53:00,29.4,8.0,30.37,ESE,104,11.0,14.0,41,0.00,,,0.00,weatherlink.com 1.10,2013-02-18 20:53:00,
2013-02-18 14:09:00,29.8,8.0,30.37,ESE,102,12.0,13.0,40,0.00,,,0.00,weatherlink.com 1.10,2013-02-18 21:09:00,
2013-02-18 14:24:00,29.5,9.0,30.38,ESE,109,8.0,14.0,42,0.00,,,0.00,weatherlink.com 1.10,2013-02-18 21:24:00,
2013-02-18 14:39:00,30.6,9.0,30.38,ENE,77,5.0,14.0,41,0.00,,,0.00,weatherlink.com 1.10,2013-02-18 21:39:00,
2013-02-18 14:54:00,31.3,7.0,30.38,ESE,120,5.0,8.0,36,0.00,,,0.00,weatherlink.com 1.10,2013-02-18 21:54:00,
2013-02-18 15:09:00,32.5,7.0,30.38,South,172,2.0,8.0,34,0.00,,,0.00,weatherlink.com 1.10,2013-02-18 22:09:00,
2013-02-18 15:24:00,31.3,4.0,30.38,South,179,4.0,10.0,32,0.00,,,0.00,weatherlink.com 1.10,2013-02-18 22:24:00,
2013-02-18 15:39:00,30.4,5.0,30.38,South,173,4.0,9.0,34,0.00,,,0.00,weatherlink.com 1.10,2013-02-18 22:39:00,
2013-02-18 15:54:00,31.2,4.0,30.37,SSE,168,2.0,7.0,32,0.00,,,0.00,weatherlink.com 1.10,2013-02-18 22:54:00,
2013-02-18 16:10:00,31.3,5.0,30.37,SSE,164,2.0,5.0,33,0.00,,,0.00,weatherlink.com 1.10,2013-02-18 23:10:00,
2013-02-18 16:25:00,30.0,5.0,30.37,SSE,164,4.0,6.0,35,0.00,,,0.00,weatherlink.com 1.10,2013-02-18 23:25:00,
2013-02-18 16:40:00,31.0,6.0,30.37,SSW,213,2.0,4.0,35,0.00,,,0.00,weatherlink.com 1.10,2013-02-18 23:40:00,
2013-02-18 16:54:00,28.1,8.0,30.36,SE,141,0.0,4.0,43,0.00,,,0.00,weatherlink.com 1.10,2013-02-18 23:54:00,
2013-02-18 17:24:00,25.3,9.0,30.36,SSW,201,0.0,2.0,50,0.00,,,0.00,weatherlink.com 1.10,2013-02-19 00:24:00,
2013-02-18 17:40:00,24.2,7.0,30.36,SSW,204,1.0,3.0,49,0.00,,,0.00,weatherlink.com 1.10,2013-02-19 00:40:00,
2013-02-18 17:55:00,23.0,8.0,30.35,SW,231,4.0,4.0,52,0.00,,,0.00,weatherlink.com 1.10,2013-02-19 00:55:00,
2013-02-18 18:10:00,21.4,7.0,30.36,SW,232,0.0,3.0,55,0.00,,,0.00,weatherlink.com 1.10,2013-02-19 01:10:00,
2013-02-18 18:25:00,20.2,7.0,30.36,SW,232,0.0,2.0,57,0.00,,,0.00,weatherlink.com 1.10,2013-02-19 01:25:00,
2013-02-18 18:40:00,18.9,7.0,30.37,SW,232,0.0,3.0,60,0.00,,,0.00,weatherlink.com 1.10,2013-02-19 01:40:00,
2013-02-18 18:55:00,18.6,6.0,30.37,WSW,245,5.0,5.0,59,0.00,,,0.00,weatherlink.com 1.10,2013-02-19 01:55:00,
2013-02-18 19:10:00,19.4,7.0,30.37,SW,225,2.0,5.0,58,0.00,,,0.00,weatherlink.com 1.10,2013-02-19 02:10:00,
2013-02-18 19:25:00,19.5,6.0,30.37,SW,225,2.0,5.0,57,0.00,,,0.00,weatherlink.com 1.10,2013-02-19 02:25:00,
2013-02-18 20:11:00,18.4,5.0,30.37,NW,324,0.0,4.0,56,0.00,,,0.00,weatherlink.com 1.10,2013-02-19 03:11:00,
2013-02-18 20:26:00,19.2,5.0,30.38,SW,223,0.0,4.0,55,0.00,,,0.00,weatherlink.com 1.10,2013-02-19 03:26:00,
2013-02-18 20:40:00,17.7,5.0,30.38,SW,227,2.0,3.0,59,0.00,,,0.00,weatherlink.com 1.10,2013-02-19 03:40:00,
2013-02-18 20:55:00,16.1,5.0,30.37,SW,228,2.0,3.0,61,0.00,,,0.00,weatherlink.com 1.10,2013-02-19 03:55:00,
2013-02-18 21:11:00,15.7,5.0,30.37,SW,228,0.0,2.0,63,0.00,,,0.00,weatherlink.com 1.10,2013-02-19 04:11:00,
2013-02-18 21:26:00,15.4,4.0,30.38,SW,228,3.0,3.0,62,0.00,,,0.00,weatherlink.com 1.10,2013-02-19 04:26:00,
2013-02-18 21:41:00,14.6,4.0,30.38,SW,228,2.0,3.0,64,0.00,,,0.00,weatherlink.com 1.10,2013-02-19 04:41:00,
2013-02-18 21:56:00,14.4,3.0,30.39,SW,228,2.0,3.0,62,0.00,,,0.00,weatherlink.com 1.10,2013-02-19 04:56:00,
2013-02-18 22:11:00,13.5,4.0,30.38,SW,228,1.0,3.0,65,0.00,,,0.00,weatherlink.com 1.10,2013-02-19 05:11:00,
2013-02-18 22:26:00,14.3,3.0,30.38,WSW,237,3.0,4.0,62,0.00,,,0.00,weatherlink.com 1.10,2013-02-19 05:26:00,
2013-02-18 22:41:00,16.5,3.0,30.38,SW,224,4.0,7.0,56,0.00,,,0.00,weatherlink.com 1.10,2013-02-19 05:41:00,
2013-02-18 22:56:00,17.5,4.0,30.38,WSW,247,1.0,7.0,56,0.00,,,0.00,weatherlink.com 1.10,2013-02-19 05:56:00,
2013-02-18 23:11:00,17.0,4.0,30.38,WSW,256,0.0,5.0,58,0.00,,,0.00,weatherlink.com 1.10,2013-02-19 06:11:00,
2013-02-18 23:26:00,17.2,5.0,30.38,WSW,256,0.0,2.0,58,0.00,,,0.00,weatherlink.com 1.10,2013-02-19 06:26:00,
2013-02-18 23:42:00,17.3,4.0,30.38,ENE,66,0.0,4.0,57,0.00,,,0.00,weatherlink.com 1.10,2013-02-19 06:42:00,
2013-02-18 23:56:00,16.5,6.0,30.38,ENE,66,1.0,2.0,63,0.00,,,0.00,weatherlink.com 1.10,2013-02-19 06:56:00,